Time;durP1;ratioP1;P1;durP2;ratioP2;P2;SDS_P1;SDS_P2;PMS_P1;PMS_P2;Temp;Humidity;BMP_temperature;BMP_pressure;BME280_temperature;BME280_humidity;BME280_pressure;Samples;Min_cycle;Max_cycle;Signal;HPM_P1;HPM_P2
2021/06/15 05:00:26;;;;;;;5.43;2.90;;;16.50;97.00;;;;;;5925633;23;20050;-77
2021/06/15 05:02:54;;;;;;;4.22;2.55;;;16.60;96.80;;;;;;4966680;23;21198;-79
2021/06/15 05:05:23;;;;;;;5.57;2.90;;;16.70;96.80;;;;;;4937615;29;20126;-77
2021/06/15 05:07:56;;;;;;;5.38;3.25;;;16.70;96.70;;;;;;4937028;29;20071;-76
2021/06/15 05:10:26;;;;;;;5.03;2.92;;;16.80;96.60;;;;;;4936793;29;20244;-78
2021/06/15 05:12:54;;;;;;;4.95;2.50;;;16.80;96.50;;;;;;4937078;29;20561;-77
2021/06/15 05:15:26;;;;;;;4.03;2.67;;;16.80;96.70;;;;;;4936970;29;20067;-78
2021/06/15 05:17:54;;;;;;;5.70;2.90;;;16.90;96.50;;;;;;4936979;29;20493;-77
2021/06/15 05:20:24;;;;;;;5.00;2.72;;;16.90;96.50;;;;;;4937131;29;20134;-76
2021/06/15 05:23:00;;;;;;;5.82;3.20;;;16.90;96.50;;;;;;4937198;29;20134;-78
2021/06/15 05:25:27;;;;;;;6.10;3.28;;;17.00;96.40;;;;;;4936750;29;20048;-76
2021/06/15 05:27:55;;;;;;;6.22;3.33;;;17.00;96.40;;;;;;4936672;29;20066;-76
2021/06/15 05:30:24;;;;;;;5.55;2.90;;;17.00;96.30;;;;;;4936743;29;20134;-78
2021/06/15 05:32:52;;;;;;;6.75;3.40;;;17.00;96.30;;;;;;4936934;29;20091;-79
2021/06/15 05:35:20;;;;;;;4.45;2.95;;;17.00;96.30;;;;;;4937195;29;20134;-78
2021/06/15 05:37:49;;;;;;;6.53;2.85;;;17.00;96.30;;;;;;4937052;29;20083;-78
2021/06/15 05:40:17;;;;;;;5.50;2.92;;;17.10;96.40;;;;;;4936350;29;20091;-78
2021/06/15 05:42:45;;;;;;;7.38;3.35;;;17.20;96.50;;;;;;4936645;29;20134;-78
2021/06/15 05:45:15;;;;;;;6.30;3.35;;;17.20;96.60;;;;;;4936961;29;20090;-79
2021/06/15 05:47:44;;;;;;;6.32;3.25;;;17.30;96.20;;;;;;4936690;29;20059;-77
2021/06/15 05:50:14;;;;;;;6.72;3.15;;;17.40;96.20;;;;;;4936515;29;20063;-77
2021/06/15 05:52:41;;;;;;;6.72;3.42;;;17.40;96.30;;;;;;4936618;29;20062;-79
2021/06/15 05:55:11;;;;;;;7.10;3.25;;;17.50;96.30;;;;;;4936028;29;20056;-79
2021/06/15 05:57:39;;;;;;;6.80;3.25;;;17.50;96.50;;;;;;4936059;29;20497;-79
2021/06/15 06:00:09;;;;;;;6.72;3.60;;;17.60;96.50;;;;;;4936259;29;20520;-78
2021/06/15 06:02:36;;;;;;;5.18;3.00;;;17.70;96.30;;;;;;4936173;29;20082;-77
2021/06/15 06:08:07;;;;;;;4.70;2.70;;;17.80;96.30;;;;;;4934717;29;20059;-79
2021/06/15 06:10:36;;;;;;;5.28;2.80;;;17.90;96.10;;;;;;4935875;29;20071;-78
2021/06/15 06:13:06;;;;;;;5.55;3.45;;;18.00;95.80;;;;;;4935926;29;20170;-78
2021/06/15 06:15:34;;;;;;;5.63;3.10;;;18.10;95.40;;;;;;4936132;29;20406;-79
2021/06/15 06:18:07;;;;;;;4.85;2.70;;;18.10;95.20;;;;;;4935706;29;20142;-78
2021/06/15 06:20:37;;;;;;;6.78;2.70;;;18.20;95.10;;;;;;4935900;29;20390;-78
2021/06/15 06:23:05;;;;;;;5.18;2.47;;;18.30;94.80;;;;;;4935928;29;20061;-78
2021/06/15 06:25:33;;;;;;;7.45;2.63;;;18.40;95.00;;;;;;4936005;29;20079;-76
2021/06/15 06:28:01;;;;;;;6.53;3.00;;;18.40;94.50;;;;;;4935542;29;20091;-77
2021/06/15 06:30:29;;;;;;;5.68;2.60;;;18.50;94.10;;;;;;4935714;29;20056;-78
2021/06/15 06:32:56;;;;;;;5.30;2.35;;;18.60;94.00;;;;;;4935954;29;20126;-77
2021/06/15 06:35:23;;;;;;;4.53;2.38;;;18.70;94.00;;;;;;4935844;29;20465;-78
2021/06/15 06:37:52;;;;;;;6.00;2.95;;;18.70;93.90;;;;;;4935806;29;20434;-78
2021/06/15 06:40:19;;;;;;;4.90;2.50;;;18.80;93.70;;;;;;4935891;29;20090;-78
2021/06/15 06:42:46;;;;;;;6.40;2.50;;;18.90;93.40;;;;;;4935776;29;20131;-78
2021/06/15 06:45:14;;;;;;;4.07;2.30;;;18.90;93.20;;;;;;4935585;29;20079;-78
2021/06/15 06:47:41;;;;;;;3.88;2.38;;;19.00;93.00;;;;;;4935926;29;20072;-78
2021/06/15 06:50:09;;;;;;;4.18;2.20;;;19.10;92.90;;;;;;4935590;29;20139;-79
2021/06/15 06:52:37;;;;;;;3.53;2.10;;;19.20;92.80;;;;;;4935712;29;20142;-79
2021/06/15 06:55:08;;;;;;;4.60;2.47;;;19.20;92.60;;;;;;4935373;29;20056;-78
2021/06/15 06:57:35;;;;;;;5.00;2.50;;;19.30;92.40;;;;;;4935744;29;20090;-78
2021/06/15 07:00:04;;;;;;;5.63;2.65;;;19.40;92.30;;;;;;4936097;29;20132;-79
2021/06/15 07:02:31;;;;;;;4.75;2.80;;;19.40;92.10;;;;;;4936000;29;20086;-78
2021/06/15 07:04:58;;;;;;;4.85;2.50;;;19.50;92.00;;;;;;4935929;29;20087;-78
2021/06/15 07:07:25;;;;;;;3.65;1.98;;;19.50;91.90;;;;;;4935425;29;20135;-78
2021/06/15 07:09:52;;;;;;;4.03;2.10;;;19.60;91.90;;;;;;4935592;29;20136;-78
2021/06/15 07:12:21;;;;;;;4.55;2.20;;;19.70;92.00;;;;;;4935552;29;20130;-79
2021/06/15 07:14:48;;;;;;;4.53;1.98;;;19.70;92.30;;;;;;4935373;29;20130;-78
2021/06/15 07:17:15;;;;;;;5.10;1.90;;;19.80;91.80;;;;;;4935707;29;20139;-77
2021/06/15 07:19:43;;;;;;;4.55;2.47;;;19.90;91.70;;;;;;4935568;29;20134;-79
2021/06/15 07:22:10;;;;;;;4.10;2.33;;;20.00;91.70;;;;;;4935201;29;20087;-78
2021/06/15 07:24:37;;;;;;;4.70;2.10;;;20.00;91.70;;;;;;4935387;29;20135;-78
2021/06/15 07:27:05;;;;;;;4.85;2.22;;;20.10;91.70;;;;;;4935396;29;20058;-78
2021/06/15 07:29:33;;;;;;;5.38;2.13;;;20.20;91.70;;;;;;4935644;29;20055;-79
2021/06/15 07:32:01;;;;;;;5.07;2.40;;;20.30;91.70;;;;;;4936386;29;20047;-79
2021/06/15 07:34:28;;;;;;;5.53;2.50;;;20.40;91.60;;;;;;4938661;29;20138;-78
2021/06/15 07:36:55;;;;;;;6.38;2.70;;;20.40;91.50;;;;;;4938470;29;20499;-79
2021/06/15 07:39:22;;;;;;;4.35;2.10;;;20.50;91.30;;;;;;4938726;29;20048;-78
2021/06/15 07:41:49;;;;;;;5.03;2.00;;;20.50;91.30;;;;;;4938519;29;20051;-78
2021/06/15 07:44:16;;;;;;;4.68;2.20;;;20.60;91.10;;;;;;4938540;29;20079;-78
2021/06/15 07:46:45;;;;;;;4.53;2.25;;;20.70;91.10;;;;;;4938644;29;20070;-77
2021/06/15 07:49:12;;;;;;;6.30;2.38;;;20.70;90.90;;;;;;4938350;29;20079;-77
2021/06/15 07:51:40;;;;;;;4.53;2.15;;;20.80;90.80;;;;;;4938184;29;20135;-78
2021/06/15 07:54:07;;;;;;;3.97;1.88;;;20.80;90.70;;;;;;4938095;29;20047;-78
2021/06/15 07:56:35;;;;;;;3.63;1.90;;;20.90;90.50;;;;;;4938338;29;20131;-77
2021/06/15 07:59:02;;;;;;;3.63;1.92;;;21.00;90.40;;;;;;4938181;29;20142;-78
2021/06/15 08:01:29;;;;;;;5.25;1.90;;;21.10;90.10;;;;;;4938034;29;20079;-77
2021/06/15 08:03:57;;;;;;;4.07;2.10;;;21.10;89.50;;;;;;4937945;29;20079;-77
2021/06/15 08:06:24;;;;;;;4.07;2.00;;;21.20;89.10;;;;;;4938128;29;20090;-76
2021/06/15 08:08:51;;;;;;;4.57;2.25;;;21.30;88.50;;;;;;4937983;29;20580;-76
2021/06/15 08:11:18;;;;;;;4.38;1.90;;;21.40;88.70;;;;;;4938115;29;20477;-76
2021/06/15 08:13:46;;;;;;;4.00;1.83;;;21.40;88.40;;;;;;4938192;29;20090;-75
2021/06/15 08:16:14;;;;;;;5.55;2.42;;;21.50;87.60;;;;;;4937982;29;20051;-76
2021/06/15 08:18:41;;;;;;;4.05;2.08;;;21.60;87.10;;;;;;4937664;29;20131;-77
2021/06/15 08:21:09;;;;;;;4.30;1.90;;;21.60;87.00;;;;;;4937749;29;20556;-78
2021/06/15 08:23:36;;;;;;;3.33;1.73;;;21.70;86.90;;;;;;4937859;29;20106;-78
2021/06/15 08:26:04;;;;;;;8.45;2.35;;;21.80;86.90;;;;;;4938335;29;20135;-78
2021/06/15 08:28:31;;;;;;;5.85;2.50;;;21.80;86.70;;;;;;4938128;29;20085;-77
2021/06/15 08:30:58;;;;;;;3.55;2.20;;;21.90;86.60;;;;;;4938031;29;20131;-78
2021/06/15 08:33:26;;;;;;;5.10;2.20;;;22.00;86.40;;;;;;4937492;29;20047;-79
2021/06/15 08:35:54;;;;;;;7.20;2.80;;;22.00;85.70;;;;;;4937793;29;20470;-78
2021/06/15 08:38:22;;;;;;;5.20;2.45;;;22.10;85.00;;;;;;4937605;29;20135;-77
2021/06/15 08:40:51;;;;;;;3.95;1.92;;;22.20;83.90;;;;;;4937752;29;20051;-78
2021/06/15 08:43:19;;;;;;;4.07;1.98;;;22.30;83.50;;;;;;4937582;29;20142;-78
2021/06/15 08:45:47;;;;;;;4.10;2.10;;;22.30;82.90;;;;;;4937230;29;20142;-75
2021/06/15 08:48:15;;;;;;;4.25;2.05;;;22.40;82.90;;;;;;4937969;29;20134;-76
2021/06/15 08:50:44;;;;;;;4.72;1.92;;;22.50;82.70;;;;;;4937827;29;20142;-76
2021/06/15 08:53:12;;;;;;;5.18;2.00;;;22.50;82.10;;;;;;4937744;29;20052;-75
2021/06/15 08:55:48;;;;;;;4.72;2.00;;;22.60;82.00;;;;;;4937591;29;20138;-77
2021/06/15 08:58:37;;;;;;;3.55;1.80;;;22.70;81.10;;;;;;4940961;29;20048;-75
2021/06/15 09:01:10;;;;;;;3.60;1.80;;;22.70;80.40;;;;;;4957269;29;20047;-76
2021/06/15 09:03:37;;;;;;;3.50;1.88;;;22.80;79.90;;;;;;4957337;29;20031;-78
2021/06/15 09:06:05;;;;;;;4.53;1.75;;;22.90;80.00;;;;;;4957517;29;20055;-77
2021/06/15 09:08:32;;;;;;;6.63;2.05;;;23.00;79.10;;;;;;4958373;28;20054;-77
2021/06/15 09:11:07;;;;;;;3.05;1.60;;;23.00;77.00;;;;;;4957798;29;20493;-76
2021/06/15 09:13:37;;;;;;;3.83;1.60;;;23.10;75.80;;;;;;4947119;29;20082;-77
2021/06/15 09:16:32;;;;;;;3.80;1.75;;;23.20;75.20;;;;;;4938373;29;20457;-78
2021/06/15 09:19:03;;;;;;;4.00;1.63;;;23.30;73.80;;;;;;4937653;29;20397;-78
2021/06/15 09:21:42;;;;;;;4.18;1.80;;;23.30;73.20;;;;;;4937520;29;20098;-77
2021/06/15 09:24:13;;;;;;;3.15;1.70;;;23.40;73.20;;;;;;4937392;29;20134;-78
2021/06/15 09:27:09;;;;;;;2.95;1.48;;;23.50;72.80;;;;;;4937432;29;20555;-78
2021/06/15 09:29:46;;;;;;;4.25;1.92;;;23.50;72.20;;;;;;4893154;29;20142;-78
2021/06/15 09:32:18;;;;;;;5.03;1.50;;;23.60;69.60;;;;;;4937106;29;20082;-78
2021/06/15 09:34:58;;;;;;;4.05;1.60;;;23.70;69.30;;;;;;4936945;29;20091;-80
2021/06/15 09:37:37;;;;;;;5.53;1.75;;;23.70;69.60;;;;;;4937013;29;20409;-78
2021/06/15 09:40:13;;;;;;;3.42;1.70;;;23.80;69.60;;;;;;4936852;29;20083;-78
2021/06/15 09:43:00;;;;;;;3.90;1.73;;;23.80;69.70;;;;;;4936710;29;20122;-79
2021/06/15 09:45:30;;;;;;;3.97;1.90;;;24.00;69.00;;;;;;4936689;29;20130;-78
2021/06/15 09:48:37;;;;;;;6.03;2.30;;;24.00;68.20;;;;;;4936701;29;20090;-77
2021/06/15 09:51:08;;;;;;;4.65;1.80;;;24.10;66.70;;;;;;4918357;29;20047;-78
2021/06/15 09:53:37;;;;;;;3.63;1.38;;;24.20;65.50;;;;;;4936743;29;20052;-78
2021/06/15 09:56:07;;;;;;;3.50;1.30;;;24.20;63.80;;;;;;4936294;29;20142;-78
2021/06/15 09:58:47;;;;;;;3.72;1.55;;;24.30;62.80;;;;;;4936593;29;20138;-78
2021/06/15 10:01:25;;;;;;;4.32;1.67;;;24.40;62.10;;;;;;4936912;29;20048;-79
2021/06/15 10:04:16;;;;;;;3.15;1.50;;;24.40;59.80;;;;;;4936547;29;20089;-79
2021/06/15 10:06:45;;;;;;;4.30;1.70;;;24.50;60.20;;;;;;4936251;29;20111;-78
2021/06/15 10:09:13;;;;;;;2.95;1.50;;;24.60;60.10;;;;;;4935994;29;20459;-78
2021/06/15 10:11:46;;;;;;;3.53;1.42;;;24.70;60.10;;;;;;4936459;29;20138;-78
2021/06/15 10:14:14;;;;;;;2.70;1.30;;;24.70;59.30;;;;;;4936196;29;20055;-79
2021/06/15 10:16:43;;;;;;;4.38;1.50;;;24.80;59.60;;;;;;4936301;29;20138;-78
2021/06/15 10:19:10;;;;;;;4.15;1.58;;;24.90;59.10;;;;;;4936449;29;20135;-78
2021/06/15 10:21:37;;;;;;;3.50;1.50;;;24.90;58.90;;;;;;4936071;29;20136;-78
2021/06/15 10:24:06;;;;;;;3.17;1.63;;;25.00;59.20;;;;;;4936380;29;20044;-78
2021/06/15 10:26:34;;;;;;;3.53;1.50;;;25.10;59.00;;;;;;4936235;29;20095;-78
2021/06/15 10:29:07;;;;;;;3.25;1.30;;;25.10;57.80;;;;;;4936531;29;20090;-78
2021/06/15 10:31:37;;;;;;;2.97;1.40;;;25.20;56.40;;;;;;4936138;29;20135;-78
2021/06/15 10:34:04;;;;;;;2.90;1.45;;;25.30;56.20;;;;;;4936488;29;20131;-77
2021/06/15 10:36:40;;;;;;;3.95;1.42;;;25.30;54.80;;;;;;4936735;29;20143;-77
2021/06/15 10:39:12;;;;;;;3.70;1.70;;;25.30;55.30;;;;;;4936107;29;20051;-77
2021/06/15 10:41:39;;;;;;;4.78;1.85;;;25.40;56.00;;;;;;4936078;29;20481;-78
2021/06/15 10:44:11;;;;;;;4.18;1.80;;;25.50;56.20;;;;;;4936124;29;20147;-77
2021/06/15 10:46:42;;;;;;;2.88;1.58;;;25.50;56.60;;;;;;4936096;29;20061;-79
2021/06/15 10:49:12;;;;;;;4.10;1.90;;;25.60;56.50;;;;;;4936156;29;20047;-77
2021/06/15 10:51:52;;;;;;;3.17;1.60;;;25.60;56.30;;;;;;4936461;29;20143;-76
2021/06/15 10:54:40;;;;;;;4.95;1.40;;;25.70;56.70;;;;;;4935574;29;20055;-79
2021/06/15 10:57:24;;;;;;;4.18;1.60;;;25.80;57.10;;;;;;4935428;29;20416;-79
2021/06/15 11:00:04;;;;;;;2.95;1.40;;;25.80;57.00;;;;;;4936003;29;20050;-77
2021/06/15 11:02:33;;;;;;;3.35;1.70;;;25.90;57.10;;;;;;4936212;29;20505;-78
2021/06/15 11:05:39;;;;;;;3.42;1.30;;;26.00;56.40;;;;;;4935051;29;20479;-78
2021/06/15 11:08:21;;;;;;;2.63;1.30;;;26.10;56.00;;;;;;4938939;29;20074;-78
2021/06/15 11:10:56;;;;;;;3.78;1.60;;;26.10;55.90;;;;;;4939847;29;20048;-79
2021/06/15 11:13:43;;;;;;;;;;;26.20;55.90;;;;;;4940397;29;20064;-75
2021/06/15 11:16:22;;;;;;;3.88;1.70;;;26.30;56.60;;;;;;4939400;29;19923;-76
2021/06/15 11:19:31;;;;;;;4.05;1.60;;;26.40;56.70;;;;;;4939491;29;20484;-78
2021/06/15 11:22:01;;;;;;;3.45;1.77;;;26.50;55.80;;;;;;4939199;29;20086;-78
2021/06/15 11:24:31;;;;;;;4.28;1.77;;;26.50;55.30;;;;;;4939492;29;20090;-79
2021/06/15 11:27:01;;;;;;;3.38;1.55;;;26.50;55.20;;;;;;4939455;29;20078;-78
2021/06/15 11:29:31;;;;;;;3.17;1.63;;;26.60;54.70;;;;;;4939524;29;20134;-78
2021/06/15 11:32:22;;;;;;;3.40;1.40;;;26.60;54.90;;;;;;4939242;29;20051;-78
2021/06/15 11:35:18;;;;;;;3.50;1.77;;;26.70;54.90;;;;;;4939256;29;20075;-78
2021/06/15 11:37:49;;;;;;;3.42;1.70;;;26.80;55.10;;;;;;4938989;29;20134;-77
2021/06/15 11:40:20;;;;;;;4.90;1.90;;;26.80;54.90;;;;;;4939287;29;20059;-78
2021/06/15 11:42:49;;;;;;;4.20;1.80;;;26.90;53.70;;;;;;4938920;29;20051;-79
2021/06/15 11:45:34;;;;;;;3.80;1.80;;;26.90;53.10;;;;;;4938599;29;20055;-76
2021/06/15 11:48:30;;;;;;;4.47;1.92;;;27.00;52.20;;;;;;4938633;29;20083;-74
2021/06/15 11:51:01;;;;;;;3.40;1.70;;;27.00;51.30;;;;;;4938393;29;20043;-77
2021/06/15 11:53:32;;;;;;;4.85;1.70;;;27.00;49.50;;;;;;4938991;29;20408;-76
2021/06/15 11:56:02;;;;;;;4.18;2.15;;;27.00;49.80;;;;;;4938644;29;20107;-77
2021/06/15 11:58:32;;;;;;;2.72;1.30;;;26.90;49.80;;;;;;4938521;29;20048;-77
2021/06/15 12:01:02;;;;;;;2.50;1.20;;;27.00;49.80;;;;;;4938724;29;20075;-76
2021/06/15 12:03:35;;;;;;;3.72;1.50;;;27.00;50.10;;;;;;4938560;29;20056;-77
2021/06/15 12:06:03;;;;;;;4.25;1.80;;;27.00;50.30;;;;;;4938255;29;20102;-76
2021/06/15 12:08:32;;;;;;;2.92;1.35;;;27.10;48.90;;;;;;4938656;29;20134;-78
2021/06/15 12:11:00;;;;;;;3.50;1.70;;;27.20;49.50;;;;;;4938674;29;20182;-77
2021/06/15 12:13:28;;;;;;;3.45;1.40;;;27.30;50.80;;;;;;4940284;29;20115;-80
2021/06/15 12:16:00;;;;;;;4.68;1.67;;;27.40;51.60;;;;;;4938916;29;20099;-78
2021/06/15 12:18:41;;;;;;;2.88;1.40;;;27.60;49.80;;;;;;4937936;29;20139;-79
2021/06/15 12:21:14;;;;;;;3.08;1.15;;;27.70;50.00;;;;;;4937991;29;20138;-79
2021/06/15 12:23:45;;;;;;;3.35;1.27;;;27.80;50.30;;;;;;4938248;29;20083;-78
2021/06/15 12:26:32;;;;;;;2.60;1.45;;;27.90;50.20;;;;;;4938606;29;20505;-78
2021/06/15 12:29:01;;;;;;;3.88;1.50;;;28.00;50.30;;;;;;4937847;29;20047;-77
2021/06/15 12:31:34;;;;;;;3.00;1.40;;;28.10;49.90;;;;;;4938226;29;20135;-78
2021/06/15 12:34:03;;;;;;;3.08;1.40;;;28.20;50.00;;;;;;4937982;29;20564;-78
2021/06/15 12:36:35;;;;;;;2.30;1.10;;;28.30;50.20;;;;;;4938209;29;20062;-78
2021/06/15 12:39:11;;;;;;;3.97;1.45;;;28.50;51.00;;;;;;4937502;29;20576;-77
2021/06/15 12:41:41;;;;;;;2.58;1.30;;;28.70;49.60;;;;;;4937930;29;20141;-78
2021/06/15 12:44:09;;;;;;;3.70;1.50;;;28.90;49.30;;;;;;4937909;29;20135;-78
2021/06/15 12:46:38;;;;;;;2.97;1.23;;;29.00;49.10;;;;;;4937897;29;20086;-78
2021/06/15 12:49:07;;;;;;;3.10;1.40;;;29.10;59.00;;;;;;4937885;29;20055;-80
2021/06/15 12:51:45;;;;;;;2.80;1.25;;;29.20;47.00;;;;;;4937357;29;20154;-76
2021/06/15 12:54:24;;;;;;;3.20;1.40;;;29.30;46.20;;;;;;4937237;29;20541;-79
2021/06/15 12:57:01;;;;;;;2.10;1.10;;;29.40;45.20;;;;;;4937263;29;20102;-77
2021/06/15 12:59:29;;;;;;;3.35;1.30;;;29.40;47.90;;;;;;4937428;29;20448;-77
2021/06/15 13:01:56;;;;;;;3.95;1.30;;;29.60;45.20;;;;;;4937176;29;20472;-78
2021/06/15 13:04:26;;;;;;;2.95;1.20;;;29.70;59.00;;;;;;4936955;29;20577;-78
2021/06/15 13:06:57;;;;;;;2.60;1.10;;;29.70;45.20;;;;;;4937463;29;20135;-77
2021/06/15 13:09:28;;;;;;;3.03;1.25;;;29.80;44.70;;;;;;4937605;29;20051;-77
2021/06/15 13:12:00;;;;;;;2.88;1.40;;;29.80;43.60;;;;;;4936933;29;20220;-78
2021/06/15 13:14:29;;;;;;;2.90;1.25;;;29.90;43.40;;;;;;4937405;29;20146;-78
2021/06/15 13:17:04;;;;;;;3.08;1.20;;;29.90;43.40;;;;;;4937222;29;20158;-77
2021/06/15 13:19:44;;;;;;;3.28;1.50;;;29.90;43.80;;;;;;4937342;29;20142;-78
2021/06/15 13:22:18;;;;;;;3.78;1.40;;;30.00;43.30;;;;;;4937376;29;20055;-80
2021/06/15 13:24:47;;;;;;;3.13;1.50;;;30.10;44.00;;;;;;4937170;29;20079;-81
2021/06/15 13:27:38;;;;;;;3.20;1.40;;;30.10;43.30;;;;;;4937098;29;20131;-76
2021/06/15 13:30:10;;;;;;;3.42;1.35;;;30.10;43.80;;;;;;4931339;29;20079;-77
2021/06/15 13:32:39;;;;;;;3.67;1.52;;;30.20;43.20;;;;;;4936806;29;20135;-78
2021/06/15 13:35:18;;;;;;;2.10;1.10;;;30.40;43.00;;;;;;4937305;29;20070;-77
2021/06/15 13:37:58;;;;;;;3.00;1.10;;;30.50;43.20;;;;;;4936308;29;20535;-78
2021/06/15 13:40:35;;;;;;;2.85;1.23;;;30.70;43.20;;;;;;4937450;29;20051;-80
2021/06/15 13:43:06;;;;;;;3.42;1.33;;;30.90;41.90;;;;;;4937117;29;20055;-78
2021/06/15 13:45:35;;;;;;;3.80;1.48;;;30.90;40.00;;;;;;4936794;29;20075;-77
2021/06/15 13:48:05;;;;;;;2.88;1.50;;;30.90;40.20;;;;;;4936481;29;20135;-78
2021/06/15 13:50:32;;;;;;;3.58;1.58;;;30.90;40.50;;;;;;4936462;29;20549;-78
2021/06/15 13:53:01;;;;;;;3.28;1.42;;;30.90;39.90;;;;;;4937221;29;20058;-79
2021/06/15 13:55:29;;;;;;;2.90;1.33;;;31.00;40.90;;;;;;4936869;29;20052;-78
2021/06/15 13:57:56;;;;;;;3.40;1.50;;;31.10;41.50;;;;;;4936445;29;20052;-76
2021/06/15 14:00:24;;;;;;;3.85;1.33;;;31.20;41.30;;;;;;4936524;29;20112;-79
2021/06/15 14:02:51;;;;;;;2.95;1.23;;;31.40;41.10;;;;;;4936336;29;20131;-77
2021/06/15 14:05:19;;;;;;;2.60;1.10;;;31.60;40.80;;;;;;4936541;29;20134;-78
2021/06/15 14:07:46;;;;;;;3.95;1.30;;;31.80;46.30;;;;;;4936608;29;20047;-77
2021/06/15 14:10:17;;;;;;;2.60;1.20;;;32.00;62.10;;;;;;4936817;29;20127;-77
2021/06/15 14:12:46;;;;;;;2.75;1.20;;;32.10;63.70;;;;;;4936802;29;20249;-77
2021/06/15 14:15:15;;;;;;;2.78;1.27;;;32.20;65.90;;;;;;4936482;29;20086;-77
2021/06/15 14:17:47;;;;;;;2.28;1.00;;;;;;;;;;4931515;29;20558;-77
2021/06/15 14:20:19;;;;;;;2.90;1.30;;;;;;;;;;4914673;29;20193;-78
2021/06/15 14:22:50;;;;;;;3.40;1.40;;;32.40;37.70;;;;;;4915137;29;20135;-78
2021/06/15 14:25:20;;;;;;;3.15;1.20;;;;;;;;;;4914759;29;20090;-78
2021/06/15 14:27:48;;;;;;;3.28;1.30;;;32.80;61.70;;;;;;4914819;29;20143;-77
2021/06/15 14:30:19;;;;;;;2.42;1.00;;;32.80;48.50;;;;;;4915062;29;20112;-77
2021/06/15 14:32:47;;;;;;;2.55;1.02;;;32.90;56.90;;;;;;4914668;29;20466;-77
2021/06/15 14:35:15;;;;;;;3.20;1.20;;;33.00;38.80;;;;;;4915217;29;20139;-78
2021/06/15 14:37:43;;;;;;;2.28;1.17;;;33.20;37.50;;;;;;4914827;29;20148;-78
2021/06/15 14:40:13;;;;;;;3.42;1.20;;;33.20;38.10;;;;;;4914901;29;20132;-80
2021/06/15 14:42:43;;;;;;;2.92;1.42;;;33.40;38.00;;;;;;4918762;29;20132;-78
2021/06/15 14:45:12;;;;;;;2.70;1.10;;;33.60;37.10;;;;;;4919032;29;20146;-78
2021/06/15 14:47:39;;;;;;;2.97;1.10;;;33.60;39.60;;;;;;4918190;29;20569;-78
2021/06/15 14:50:08;;;;;;;3.78;1.13;;;33.50;37.10;;;;;;4918630;29;20135;-76
2021/06/15 14:52:36;;;;;;;2.85;1.40;;;33.50;37.10;;;;;;4918811;29;20139;-79
2021/06/15 14:55:05;;;;;;;3.75;1.23;;;33.50;37.50;;;;;;4918976;29;20111;-77
2021/06/15 14:57:32;;;;;;;2.78;1.20;;;33.70;38.10;;;;;;4918317;29;20139;-77
2021/06/15 15:00:00;;;;;;;4.03;1.30;;;33.90;38.20;;;;;;4918494;29;20139;-77
2021/06/15 15:02:27;;;;;;;3.30;1.40;;;34.10;36.30;;;;;;4918043;29;20127;-77
2021/06/15 15:04:55;;;;;;;2.83;1.30;;;34.30;35.90;;;;;;4918359;29;20476;-76
2021/06/15 15:07:22;;;;;;;5.13;2.33;;;34.40;36.10;;;;;;4918483;29;20112;-79
2021/06/15 15:09:49;;;;;;;4.13;1.83;;;34.50;36.10;;;;;;4918272;29;20131;-80
2021/06/15 15:12:18;;;;;;;3.60;1.60;;;;;;;;;;4918371;29;20131;-79
2021/06/15 15:14:45;;;;;;;4.10;1.20;;;;;;;;;;4918037;29;20048;-78
2021/06/15 15:17:15;;;;;;;3.00;1.27;;;;;;;;;;4918124;29;20402;-78
2021/06/15 15:19:42;;;;;;;3.13;1.40;;;;;;;;;;4918296;29;20048;-77
2021/06/15 15:22:12;;;;;;;3.10;1.30;;;;;;;;;;4918246;29;20087;-77
2021/06/15 15:24:39;;;;;;;3.40;1.40;;;;;;;;;;4918015;29;20115;-78
2021/06/15 15:27:08;;;;;;;2.45;1.10;;;;;;;;;;4922234;29;20505;-77
2021/06/15 15:29:36;;;;;;;3.60;1.35;;;35.60;34.50;;;;;;4927567;29;20142;-78
2021/06/15 15:32:05;;;;;;;2.78;1.38;;;35.80;34.80;;;;;;4929816;29;20501;-79
2021/06/15 15:34:33;;;;;;;3.10;1.40;;;36.00;34.00;;;;;;4927411;29;20114;-76
2021/06/15 15:37:00;;;;;;;2.72;1.20;;;36.00;34.10;;;;;;4928507;29;20132;-76
2021/06/15 15:39:28;;;;;;;2.58;1.30;;;35.80;33.80;;;;;;4932766;29;20048;-77
2021/06/15 15:41:55;;;;;;;3.00;1.20;;;35.60;34.10;;;;;;4930499;29;20139;-76
2021/06/15 15:44:23;;;;;;;4.15;1.10;;;35.30;34.70;;;;;;4931661;29;20426;-77
2021/06/15 15:46:51;;;;;;;2.70;1.10;;;35.10;35.30;;;;;;4924558;29;20135;-77
2021/06/15 15:49:18;;;;;;;2.30;1.20;;;34.90;34.90;;;;;;4926250;29;20052;-76
2021/06/15 15:51:46;;;;;;;2.72;1.20;;;34.70;34.70;;;;;;4926747;29;20565;-79
2021/06/15 15:54:14;;;;;;;2.72;1.00;;;34.60;34.20;;;;;;4925079;29;20126;-77
2021/06/15 15:56:44;;;;;;;2.17;1.10;;;34.50;33.80;;;;;;4918630;29;20138;-75
2021/06/15 15:59:12;;;;;;;2.35;1.08;;;34.40;34.60;;;;;;4924451;29;20054;-77
2021/06/15 16:01:40;;;;;;;3.40;1.13;;;34.30;34.20;;;;;;4927610;29;20490;-77
2021/06/15 16:04:07;;;;;;;3.00;1.17;;;34.20;34.20;;;;;;4926987;29;20135;-76
2021/06/15 16:06:34;;;;;;;2.88;1.10;;;34.10;33.80;;;;;;4926575;29;20478;-76
2021/06/15 16:09:03;;;;;;;2.63;1.10;;;33.90;33.70;;;;;;4927072;29;20110;-78
2021/06/15 16:11:30;;;;;;;2.13;1.00;;;33.90;34.30;;;;;;4924028;29;20134;-75
2021/06/15 16:13:58;;;;;;;3.28;1.10;;;33.90;34.40;;;;;;4923554;29;20052;-76
2021/06/15 16:16:25;;;;;;;2.38;1.08;;;33.90;34.70;;;;;;4925199;29;20074;-78
2021/06/15 16:18:52;;;;;;;2.15;1.00;;;33.90;34.80;;;;;;4929144;29;20138;-78
2021/06/15 16:21:19;;;;;;;3.20;1.10;;;34.00;35.10;;;;;;4925696;29;20586;-78
2021/06/15 16:23:46;;;;;;;2.83;1.10;;;34.10;34.60;;;;;;4954672;29;20500;-78
2021/06/15 16:26:15;;;;;;;2.08;1.00;;;34.00;34.50;;;;;;4944648;29;20048;-76
2021/06/15 16:28:43;;;;;;;2.17;1.00;;;34.00;34.60;;;;;;4935361;29;20079;-77
2021/06/15 16:31:10;;;;;;;2.75;1.00;;;34.00;35.10;;;;;;4935112;29;20098;-77
2021/06/15 16:33:37;;;;;;;1.90;0.90;;;34.10;34.90;;;;;;4935108;29;20055;-76
2021/06/15 16:36:05;;;;;;;2.35;1.00;;;34.00;35.00;;;;;;4935093;29;20126;-76
2021/06/15 16:38:33;;;;;;;1.98;0.90;;;34.10;35.40;;;;;;4936879;29;20477;-77
2021/06/15 16:41:00;;;;;;;2.13;0.80;;;34.20;35.30;;;;;;4936525;29;20047;-76
2021/06/15 16:43:29;;;;;;;2.00;0.98;;;34.20;34.90;;;;;;4954137;29;20139;-75
2021/06/15 16:45:56;;;;;;;3.72;1.10;;;34.20;34.80;;;;;;4954329;29;20130;-76
2021/06/15 16:48:23;;;;;;;2.78;1.05;;;34.30;34.60;;;;;;4954134;29;20584;-75
2021/06/15 16:50:51;;;;;;;3.60;1.00;;;34.20;35.00;;;;;;4935191;29;20083;-77
2021/06/15 16:53:18;;;;;;;2.50;1.00;;;34.20;35.10;;;;;;4924956;29;20054;-77
2021/06/15 16:55:45;;;;;;;2.70;1.10;;;34.30;35.50;;;;;;4926241;29;20059;-77
2021/06/15 16:58:14;;;;;;;3.05;1.48;;;34.20;34.50;;;;;;4924621;29;20083;-77
2021/06/15 17:00:49;;;;;;;3.53;1.35;;;34.20;34.70;;;;;;4926862;29;20548;-76
2021/06/15 17:03:16;;;;;;;4.10;1.10;;;34.20;34.70;;;;;;4919884;29;20066;-78
2021/06/15 17:05:44;;;;;;;3.33;1.40;;;34.20;35.20;;;;;;4928002;29;20467;-75
2021/06/15 17:08:11;;;;;;;2.53;1.35;;;34.20;34.50;;;;;;4923897;29;20659;-77
2021/06/15 17:10:39;;;;;;;3.30;1.20;;;34.20;34.20;;;;;;4926061;29;20082;-76
2021/06/15 17:13:07;;;;;;;2.92;1.10;;;34.20;34.80;;;;;;4923639;29;20054;-81
2021/06/15 17:15:35;;;;;;;2.30;1.00;;;34.20;35.40;;;;;;4922564;29;20542;-85
2021/06/15 17:18:08;;;;;;;3.00;1.00;;;34.20;36.40;;;;;;4923474;29;20214;-81
2021/06/15 17:20:43;;;;;;;2.50;1.17;;;34.20;36.10;;;;;;4922514;29;20504;-82
2021/06/15 17:23:11;;;;;;;2.65;1.20;;;34.10;36.00;;;;;;4929164;29;20052;-80
2021/06/15 17:25:38;;;;;;;2.72;1.00;;;34.00;36.80;;;;;;4932072;29;20047;-80
2021/06/15 17:28:05;;;;;;;3.00;0.95;;;33.90;38.10;;;;;;4931806;29;20134;-82
2021/06/15 17:30:32;;;;;;;2.50;1.00;;;33.70;36.70;;;;;;4929487;29;20130;-82
2021/06/15 17:32:59;;;;;;;2.47;1.02;;;33.70;37.10;;;;;;4934027;29;20143;-83
2021/06/15 17:35:28;;;;;;;2.72;1.10;;;33.60;36.80;;;;;;4932801;29;20131;-81
2021/06/15 17:37:56;;;;;;;2.40;1.17;;;33.50;36.80;;;;;;4927417;29;20055;-82
2021/06/15 17:40:27;;;;;;;3.00;1.13;;;33.50;37.20;;;;;;4932220;29;20131;-83
2021/06/15 17:42:56;;;;;;;2.45;1.10;;;33.30;37.70;;;;;;4932878;29;20134;-83
2021/06/15 17:45:26;;;;;;;3.38;1.15;;;33.20;37.90;;;;;;4928261;29;20402;-81
2021/06/15 17:47:54;;;;;;;2.60;1.10;;;33.10;38.80;;;;;;4934614;29;20123;-80
2021/06/15 17:50:22;;;;;;;2.80;1.00;;;33.10;38.40;;;;;;4935396;29;20175;-80
2021/06/15 17:52:50;;;;;;;2.47;1.02;;;32.90;37.30;;;;;;4932546;29;20142;-79
2021/06/15 17:55:18;;;;;;;2.40;1.20;;;32.80;37.90;;;;;;4925767;29;20071;-80
2021/06/15 17:57:49;;;;;;;2.53;1.08;;;32.60;39.10;;;;;;4927288;29;20206;-80
2021/06/15 18:00:20;;;;;;;2.58;1.05;;;32.50;38.40;;;;;;4926655;29;20051;-80
2021/06/15 18:02:47;;;;;;;2.70;1.00;;;32.40;37.10;;;;;;4923245;29;20138;-83
2021/06/15 18:05:18;;;;;;;3.45;1.17;;;32.30;36.60;;;;;;4923927;29;20082;-81
2021/06/15 18:07:47;;;;;;;2.05;1.00;;;32.30;37.00;;;;;;4924712;29;20055;-86
2021/06/15 18:10:18;;;;;;;2.28;1.10;;;32.30;39.20;;;;;;4928132;29;20139;-88